Time;durP1;ratioP1;P1;durP2;ratioP2;P2;SDS_P1;SDS_P2;PMS_P1;PMS_P2;Temp;Humidity;BMP_temperature;BMP_pressure;BME280_temperature;BME280_humidity;BME280_pressure;Samples;Min_cycle;Max_cycle;Signal;HPM_P1;HPM_P2
2021/01/27 00:00:39;;;;;;;7.75;5.25;;;4.30;75.70;;;;;;5075894;28;20127;-91
2021/01/27 00:03:05;;;;;;;8.65;5.40;;;4.30;75.70;;;;;;5092735;28;20067;-91
2021/01/27 00:05:40;;;;;;;8.02;5.00;;;4.30;75.60;;;;;;5092911;28;20028;-92
2021/01/27 00:08:06;;;;;;;8.85;5.15;;;4.30;75.60;;;;;;5093305;28;20070;-91
2021/01/27 00:10:34;;;;;;;7.78;4.97;;;4.30;75.70;;;;;;5075323;28;20028;-92
2021/01/27 00:13:00;;;;;;;6.43;5.00;;;4.30;75.60;;;;;;5075728;28;20118;-92
2021/01/27 00:15:32;;;;;;;7.85;5.22;;;4.30;75.60;;;;;;5092769;28;20027;-93
2021/01/27 00:17:59;;;;;;;8.23;5.75;;;4.30;75.50;;;;;;5092170;28;20119;-93
2021/01/27 00:20:27;;;;;;;8.55;5.25;;;4.30;75.50;;;;;;5091649;28;20032;-92
2021/01/27 00:22:53;;;;;;;10.70;6.10;;;4.30;75.50;;;;;;5092463;28;20032;-91
2021/01/27 00:25:23;;;;;;;8.48;5.40;;;4.20;75.40;;;;;;5091505;28;20032;-91
2021/01/27 00:27:49;;;;;;;8.82;4.93;;;4.20;75.40;;;;;;5091072;28;20028;-91
2021/01/27 00:30:20;;;;;;;6.88;4.97;;;4.20;75.50;;;;;;5075138;28;20550;-91
2021/01/27 00:32:47;;;;;;;7.22;4.93;;;4.30;75.50;;;;;;5092032;28;20024;-91
2021/01/27 00:35:13;;;;;;;9.10;5.35;;;4.20;75.40;;;;;;5089207;28;20021;-93
2021/01/27 00:37:39;;;;;;;11.15;5.68;;;4.30;75.40;;;;;;5088963;28;20033;-92
2021/01/27 00:40:05;;;;;;;8.82;5.80;;;4.30;75.40;;;;;;5055001;28;20049;-91
2021/01/27 00:42:31;;;;;;;7.95;5.28;;;4.30;75.40;;;;;;5081156;28;20089;-91
2021/01/27 00:44:57;;;;;;;6.93;4.38;;;4.30;75.40;;;;;;5075196;28;20059;-91
2021/01/27 00:47:23;;;;;;;10.13;5.22;;;4.20;75.40;;;;;;5091922;28;20430;-92
2021/01/27 00:49:48;;;;;;;7.25;5.15;;;4.30;75.40;;;;;;5075649;28;20070;-92
2021/01/27 00:52:14;;;;;;;9.45;5.50;;;4.20;75.40;;;;;;5074984;28;20386;-90
2021/01/27 00:54:39;;;;;;;7.93;5.07;;;4.30;75.20;;;;;;5091617;28;20024;-91
2021/01/27 00:57:05;;;;;;;10.27;5.00;;;4.30;75.20;;;;;;5071441;28;20039;-92
2021/01/27 00:59:31;;;;;;;7.57;4.85;;;4.30;75.20;;;;;;5054879;28;20024;-91
2021/01/27 01:01:56;;;;;;;8.70;5.20;;;4.30;75.20;;;;;;5052796;28;20427;-92
2021/01/27 01:04:22;;;;;;;9.63;5.35;;;4.30;75.20;;;;;;5091361;28;20028;-92
2021/01/27 01:06:48;;;;;;;7.30;4.82;;;4.30;75.20;;;;;;5075094;28;20032;-91
2021/01/27 01:09:14;;;;;;;7.47;4.30;;;4.30;75.20;;;;;;5075128;28;20028;-90
2021/01/27 01:11:39;;;;;;;9.95;5.35;;;4.30;75.30;;;;;;5090913;28;20031;-91
2021/01/27 01:14:05;;;;;;;7.78;4.78;;;4.30;75.10;;;;;;5074893;28;20051;-91
2021/01/27 01:16:30;;;;;;;6.88;4.30;;;4.30;75.10;;;;;;5074167;28;20035;-91
2021/01/27 01:18:56;;;;;;;7.47;4.72;;;4.30;75.10;;;;;;5074552;28;20036;-90
2021/01/27 01:21:22;;;;;;;7.68;4.88;;;4.30;75.00;;;;;;5071497;28;20067;-91
2021/01/27 01:23:47;;;;;;;8.85;5.03;;;4.30;75.00;;;;;;5055273;28;20035;-91
2021/01/27 01:26:13;;;;;;;8.55;4.95;;;4.30;74.90;;;;;;5054454;28;20123;-91
2021/01/27 01:28:39;;;;;;;7.70;4.57;;;4.30;74.90;;;;;;5066277;28;20032;-91
2021/01/27 01:31:04;;;;;;;7.15;5.03;;;4.30;74.80;;;;;;5074567;28;20028;-90
2021/01/27 01:33:32;;;;;;;6.57;4.40;;;4.30;74.80;;;;;;5073164;28;20055;-91
2021/01/27 01:35:59;;;;;;;8.10;4.13;;;4.20;74.80;;;;;;5064395;28;20032;-90
2021/01/27 01:38:25;;;;;;;7.85;4.05;;;4.30;75.00;;;;;;5073849;28;20028;-91
2021/01/27 01:40:56;;;;;;;6.05;4.00;;;4.20;75.00;;;;;;5071973;28;20060;-92
2021/01/27 01:43:28;;;;;;;7.07;4.05;;;4.30;75.10;;;;;;5088565;28;20080;-91
2021/01/27 01:45:58;;;;;;;8.45;4.35;;;4.20;75.10;;;;;;5047772;28;20036;-91
2021/01/27 01:48:47;;;;;;;5.85;3.72;;;4.20;75.20;;;;;;5108568;28;20087;-90
2021/01/27 01:51:35;;;;;;;6.10;3.67;;;4.20;75.30;;;;;;5108693;28;20199;-91
2021/01/27 01:54:14;;;;;;;6.13;3.83;;;4.20;75.30;;;;;;5075120;28;20466;-91
2021/01/27 01:56:43;;;;;;;6.10;3.65;;;4.20;75.50;;;;;;5074632;28;20028;-91
2021/01/27 01:59:11;;;;;;;7.00;3.53;;;4.20;75.60;;;;;;5074927;28;20048;-90
2021/01/27 02:01:40;;;;;;;7.13;3.58;;;4.20;75.80;;;;;;5073990;28;20062;-90
2021/01/27 02:04:07;;;;;;;7.55;3.33;;;4.20;76.00;;;;;;5075928;28;20050;-92
2021/01/27 02:06:33;;;;;;;5.25;3.47;;;4.20;76.10;;;;;;5057857;28;20036;-91
2021/01/27 02:08:59;;;;;;;4.88;3.22;;;4.10;76.20;;;;;;5057713;28;20032;-92
2021/01/27 02:11:57;;;;;;;5.45;3.50;;;4.20;76.40;;;;;;5057848;28;20097;-91
2021/01/27 02:14:45;;;;;;;6.40;3.43;;;4.10;76.30;;;;;;5107948;28;20082;-92
2021/01/27 02:17:33;;;;;;;5.07;3.33;;;4.10;76.50;;;;;;5058602;28;20036;-93
2021/01/27 02:19:59;;;;;;;5.10;3.20;;;4.10;76.60;;;;;;5065007;28;20504;-90
2021/01/27 02:22:24;;;;;;;4.97;3.38;;;4.10;76.60;;;;;;5106728;28;20028;-91
2021/01/27 02:25:11;;;;;;;6.90;3.72;;;4.10;76.70;;;;;;5097020;28;20036;-89
2021/01/27 02:27:45;;;;;;;5.20;3.25;;;4.10;76.80;;;;;;5086670;28;20470;-90
2021/01/27 02:30:13;;;;;;;5.78;3.42;;;4.10;76.90;;;;;;5103423;28;20031;-90
2021/01/27 02:33:24;;;;;;;5.50;3.20;;;4.10;76.90;;;;;;5106445;28;20056;-89
2021/01/27 02:36:08;;;;;;;5.85;3.25;;;4.10;77.00;;;;;;5107142;28;20064;-89
2021/01/27 02:38:36;;;;;;;3.97;3.03;;;4.10;77.00;;;;;;5072292;28;20039;-89
2021/01/27 02:41:05;;;;;;;4.85;3.20;;;4.10;77.10;;;;;;5106960;28;20032;-89
2021/01/27 02:43:43;;;;;;;5.75;3.55;;;4.10;77.20;;;;;;5106641;28;20067;-89
2021/01/27 02:46:17;;;;;;;5.55;3.75;;;4.10;77.30;;;;;;5074131;28;20060;-89
2021/01/27 02:48:55;;;;;;;6.40;3.53;;;4.10;77.40;;;;;;5106346;28;20025;-90
2021/01/27 02:51:31;;;;;;;5.90;3.35;;;4.10;77.40;;;;;;5106458;28;20031;-90
2021/01/27 02:54:09;;;;;;;6.25;3.70;;;4.10;77.50;;;;;;5106378;28;20111;-90
2021/01/27 02:56:57;;;;;;;4.50;2.88;;;4.10;77.70;;;;;;5106343;28;20425;-90
2021/01/27 02:59:39;;;;;;;5.38;3.65;;;4.10;77.70;;;;;;5106413;28;20043;-90
2021/01/27 03:02:14;;;;;;;6.38;3.78;;;4.10;77.80;;;;;;5106828;28;20036;-90
2021/01/27 03:04:49;;;;;;;7.05;4.35;;;4.10;77.90;;;;;;5106588;28;20024;-90
2021/01/27 03:07:17;;;;;;;7.80;4.47;;;4.10;78.00;;;;;;5105761;28;20021;-89
2021/01/27 03:09:54;;;;;;;9.40;4.20;;;4.10;78.10;;;;;;5106523;28;20090;-89
2021/01/27 03:12:20;;;;;;;4.40;3.42;;;4.10;78.20;;;;;;5073227;28;20012;-89
2021/01/27 03:14:46;;;;;;;5.95;3.60;;;4.10;78.10;;;;;;5088963;28;20387;-89
2021/01/27 03:17:16;;;;;;;6.13;3.45;;;4.10;78.10;;;;;;5106524;28;20031;-89
2021/01/27 03:20:14;;;;;;;5.20;3.47;;;4.10;78.00;;;;;;5105552;28;20029;-89
2021/01/27 03:22:43;;;;;;;5.22;3.80;;;4.10;78.00;;;;;;5072354;28;20027;-89
2021/01/27 03:25:16;;;;;;;6.47;4.30;;;4.10;77.90;;;;;;5105044;28;20041;-89
2021/01/27 03:28:05;;;;;;;6.32;3.60;;;4.10;78.00;;;;;;5105757;28;20021;-89
2021/01/27 03:30:31;;;;;;;5.45;3.80;;;4.10;78.00;;;;;;5105670;28;20499;-89
2021/01/27 03:33:11;;;;;;;5.85;3.47;;;4.10;78.00;;;;;;5105736;28;20078;-89
2021/01/27 03:35:54;;;;;;;6.13;3.40;;;4.10;78.00;;;;;;5071574;28;20125;-89
2021/01/27 03:38:32;;;;;;;4.60;3.13;;;4.10;77.90;;;;;;5105635;28;20024;-89
2021/01/27 03:41:33;;;;;;;6.78;4.13;;;4.10;78.00;;;;;;5105530;28;20059;-89
2021/01/27 03:44:33;;;;;;;5.45;3.10;;;4.10;77.90;;;;;;5104537;28;20037;-89
2021/01/27 03:47:15;;;;;;;6.03;3.35;;;4.10;77.90;;;;;;5068087;28;20036;-89
2021/01/27 03:49:54;;;;;;;7.00;3.20;;;4.10;77.90;;;;;;5071134;28;20024;-89
2021/01/27 03:52:28;;;;;;;5.20;3.17;;;4.10;77.90;;;;;;5070794;28;20020;-88
2021/01/27 03:55:25;;;;;;;5.07;3.15;;;4.10;77.90;;;;;;5071394;28;20127;-89
2021/01/27 03:58:07;;;;;;;4.50;3.10;;;4.10;78.00;;;;;;5061368;28;20044;-89
2021/01/27 04:00:32;;;;;;;6.50;3.25;;;4.10;78.10;;;;;;5054736;28;20410;-89
2021/01/27 04:03:10;;;;;;;7.10;3.08;;;4.10;78.10;;;;;;5088895;28;20174;-89
2021/01/27 04:05:36;;;;;;;5.93;3.80;;;4.10;78.20;;;;;;5104793;28;20119;-88
2021/01/27 04:08:02;;;;;;;6.50;3.55;;;4.10;78.30;;;;;;5105711;28;20477;-90
2021/01/27 04:10:28;;;;;;;5.65;3.05;;;4.10;78.30;;;;;;5103911;28;20474;-88
2021/01/27 04:12:54;;;;;;;5.30;3.25;;;4.10;78.20;;;;;;5087345;28;20037;-89
2021/01/27 04:15:19;;;;;;;7.47;3.63;;;4.10;78.20;;;;;;5083533;28;20052;-90
2021/01/27 04:17:45;;;;;;;5.65;3.13;;;4.10;78.20;;;;;;5103582;28;20050;-89
2021/01/27 04:20:11;;;;;;;5.32;2.88;;;4.10;78.10;;;;;;5087092;28;20035;-89
2021/01/27 04:22:37;;;;;;;4.45;2.60;;;4.10;78.20;;;;;;5069489;28;20063;-89
2021/01/27 04:25:04;;;;;;;4.00;2.45;;;4.10;78.30;;;;;;5052937;28;20059;-88
2021/01/27 04:27:29;;;;;;;4.82;3.20;;;4.10;78.40;;;;;;5054403;28;20028;-90
2021/01/27 04:29:55;;;;;;;4.65;2.80;;;4.10;78.50;;;;;;5070557;28;20179;-91
2021/01/27 04:32:20;;;;;;;3.95;2.47;;;4.10;78.50;;;;;;5073283;28;20029;-91
2021/01/27 04:34:46;;;;;;;3.63;2.33;;;4.10;78.50;;;;;;5045544;28;20088;-90
2021/01/27 04:37:12;;;;;;;4.43;2.50;;;4.10;78.70;;;;;;5033676;28;20028;-90
2021/01/27 04:39:37;;;;;;;3.90;2.25;;;4.10;78.70;;;;;;5034398;28;20040;-91
2021/01/27 04:42:03;;;;;;;4.47;2.78;;;4.10;78.70;;;;;;5074912;28;20047;-92
2021/01/27 04:44:29;;;;;;;5.15;2.50;;;4.00;78.80;;;;;;5074636;28;20039;-91
2021/01/27 04:47:20;;;;;;;4.40;2.40;;;4.10;78.90;;;;;;5074190;28;20032;-91
2021/01/27 04:49:53;;;;;;;3.63;2.33;;;4.10;79.00;;;;;;5091273;28;20021;-90
2021/01/27 04:52:41;;;;;;;3.58;2.35;;;4.10;79.10;;;;;;5090419;28;20237;-89
2021/01/27 04:55:34;;;;;;;5.00;2.42;;;4.10;79.20;;;;;;5088665;28;20134;-90
2021/01/27 04:58:31;;;;;;;3.70;2.35;;;4.10;79.00;;;;;;5091768;28;20053;-89
2021/01/27 05:01:21;;;;;;;4.30;2.17;;;4.10;79.10;;;;;;5090093;28;20081;-89
2021/01/27 05:04:14;;;;;;;2.80;2.10;;;4.10;79.00;;;;;;5090244;28;20030;-90
2021/01/27 05:06:42;;;;;;;3.40;1.95;;;4.10;79.00;;;;;;5090407;28;20035;-89
2021/01/27 05:09:14;;;;;;;4.28;2.28;;;4.10;79.00;;;;;;5090914;28;20036;-89
2021/01/27 05:11:44;;;;;;;2.50;1.73;;;4.10;79.10;;;;;;5090593;28;20550;-89
2021/01/27 05:14:12;;;;;;;3.28;1.90;;;4.10;79.20;;;;;;5073146;28;20024;-90
2021/01/27 05:16:38;;;;;;;3.47;2.20;;;4.10;79.30;;;;;;5074280;28;20035;-90
2021/01/27 05:19:06;;;;;;;2.70;1.90;;;4.20;79.60;;;;;;5069888;28;20055;-90
2021/01/27 05:21:39;;;;;;;3.80;2.08;;;4.10;79.60;;;;;;5070511;28;20459;-89
2021/01/27 05:24:06;;;;;;;2.85;2.10;;;4.10;79.60;;;;;;5075415;28;20058;-90
2021/01/27 05:26:56;;;;;;;2.17;1.73;;;4.10;79.50;;;;;;5088426;28;20059;-90
2021/01/27 05:29:36;;;;;;;2.58;1.52;;;4.10;79.40;;;;;;5089133;28;20028;-90
2021/01/27 05:32:04;;;;;;;3.72;2.13;;;4.10;79.30;;;;;;5088156;28;20413;-90
2021/01/27 05:34:37;;;;;;;3.00;1.90;;;4.10;79.30;;;;;;5095669;28;20020;-90
2021/01/27 05:37:14;;;;;;;3.80;2.05;;;4.10;79.30;;;;;;5090898;28;20266;-91
2021/01/27 05:39:41;;;;;;;3.80;2.05;;;4.10;79.40;;;;;;5093114;22;20056;-90
2021/01/27 05:42:17;;;;;;;3.22;2.00;;;4.10;79.50;;;;;;5071275;28;20107;-91
2021/01/27 05:44:43;;;;;;;3.25;1.83;;;4.10;79.50;;;;;;5070820;28;20596;-90
2021/01/27 05:47:27;;;;;;;2.20;1.77;;;4.10;79.50;;;;;;5053975;28;20127;-90
2021/01/27 05:49:54;;;;;;;4.05;1.90;;;4.10;79.50;;;;;;5070992;28;20086;-90
2021/01/27 05:52:25;;;;;;;3.95;1.90;;;4.10;79.40;;;;;;5054478;28;20032;-90
2021/01/27 05:54:51;;;;;;;3.53;2.10;;;4.10;79.50;;;;;;5053818;28;20086;-90
2021/01/27 05:57:26;;;;;;;3.92;2.00;;;4.00;79.40;;;;;;5054095;28;20036;-90
2021/01/27 06:00:26;;;;;;;3.92;2.50;;;4.10;79.40;;;;;;5070055;28;20025;-90
2021/01/27 06:02:53;;;;;;;3.10;1.92;;;4.00;79.30;;;;;;5063264;28;20034;-91
2021/01/27 06:05:39;;;;;;;3.55;2.28;;;4.00;79.30;;;;;;5062628;28;20028;-91
2021/01/27 06:08:31;;;;;;;3.25;2.10;;;4.00;79.40;;;;;;5066802;28;20024;-88
2021/01/27 06:11:12;;;;;;;2.47;1.70;;;4.00;79.40;;;;;;5049023;28;20036;-89
2021/01/27 06:13:38;;;;;;;2.95;2.00;;;4.00;79.40;;;;;;5052324;28;20028;-89
2021/01/27 06:16:21;;;;;;;2.20;1.70;;;4.00;79.40;;;;;;5051922;28;20752;-89
2021/01/27 06:18:47;;;;;;;3.83;2.10;;;4.00;79.40;;;;;;5069147;28;20028;-86
2021/01/27 06:21:40;;;;;;;2.38;1.73;;;4.00;79.40;;;;;;5036846;28;20041;-87
2021/01/27 06:24:27;;;;;;;4.35;2.47;;;4.00;79.50;;;;;;5068101;28;20058;-86
2021/01/27 06:27:21;;;;;;;4.00;2.30;;;3.90;79.40;;;;;;5067611;28;20032;-86
2021/01/27 06:30:07;;;;;;;2.95;1.85;;;3.90;79.60;;;;;;5071775;28;20056;-87
2021/01/27 06:32:48;;;;;;;2.67;1.75;;;3.90;79.60;;;;;;5075179;28;20107;-87
2021/01/27 06:35:38;;;;;;;3.08;2.00;;;3.90;79.60;;;;;;5073865;28;20021;-87
2021/01/27 06:38:16;;;;;;;2.13;1.80;;;3.90;79.70;;;;;;5089417;28;20479;-86
2021/01/27 06:41:15;;;;;;;3.33;1.92;;;3.90;80.00;;;;;;5073295;28;20051;-87
2021/01/27 06:44:01;;;;;;;2.58;1.85;;;3.90;80.00;;;;;;5074240;28;20029;-87
2021/01/27 06:46:45;;;;;;;2.30;1.80;;;3.90;80.10;;;;;;5073781;28;20038;-87
2021/01/27 06:49:20;;;;;;;2.63;2.00;;;3.90;80.20;;;;;;5074635;28;20032;-86
2021/01/27 06:52:02;;;;;;;2.63;1.88;;;3.90;80.30;;;;;;5073806;28;20577;-86
2021/01/27 06:54:55;;;;;;;2.25;1.75;;;3.90;80.30;;;;;;5053686;28;20079;-87
2021/01/27 06:57:48;;;;;;;2.58;1.70;;;3.90;80.30;;;;;;5053892;28;20029;-87
2021/01/27 07:00:38;;;;;;;2.95;2.00;;;3.90;80.30;;;;;;5062168;28;20025;-87
2021/01/27 07:03:22;;;;;;;2.75;2.00;;;3.90;80.80;;;;;;5071706;28;20036;-88
2021/01/27 07:05:58;;;;;;;3.45;2.00;;;3.90;80.80;;;;;;5072218;28;20016;-88
2021/01/27 07:09:14;;;;;;;3.45;1.88;;;3.90;80.80;;;;;;5073699;28;20024;-87
2021/01/27 07:12:09;;;;;;;2.42;1.75;;;3.90;80.70;;;;;;5047720;28;20043;-87
2021/01/27 07:14:47;;;;;;;2.55;1.75;;;3.90;80.90;;;;;;5069611;28;20033;-87
2021/01/27 07:17:40;;;;;;;3.15;1.60;;;3.90;80.90;;;;;;5074315;28;20488;-88
2021/01/27 07:20:41;;;;;;;2.78;2.00;;;3.90;80.90;;;;;;5072840;28;20088;-87
2021/01/27 07:23:33;;;;;;;3.25;1.92;;;3.90;81.00;;;;;;5053576;28;20087;-87
2021/01/27 07:26:02;;;;;;;2.00;1.52;;;3.90;81.00;;;;;;5072530;28;20037;-87
2021/01/27 07:28:59;;;;;;;1.70;1.60;;;4.00;81.00;;;;;;5072783;28;20131;-87
2021/01/27 07:31:56;;;;;;;3.58;1.92;;;4.00;81.20;;;;;;5073117;28;20020;-87
2021/01/27 07:34:34;;;;;;;1.90;1.60;;;4.00;81.20;;;;;;5072828;28;20032;-87
2021/01/27 07:37:32;;;;;;;3.05;2.00;;;4.00;81.10;;;;;;5072097;28;20028;-87
2021/01/27 07:40:16;;;;;;;2.20;1.60;;;4.00;81.20;;;;;;5042180;28;20052;-87
2021/01/27 07:43:02;;;;;;;2.88;1.70;;;4.00;81.10;;;;;;5052670;28;20025;-87
2021/01/27 07:45:37;;;;;;;2.38;1.75;;;4.00;81.10;;;;;;5052974;28;20028;-87
2021/01/27 07:48:25;;;;;;;2.55;1.58;;;4.00;81.20;;;;;;5050067;28;20029;-89
2021/01/27 07:50:56;;;;;;;2.42;1.90;;;4.10;81.20;;;;;;5059513;28;20025;-87
2021/01/27 07:53:27;;;;;;;2.80;1.90;;;4.10;81.20;;;;;;5039198;28;20047;-86
2021/01/27 07:56:08;;;;;;;2.50;1.70;;;4.10;81.10;;;;;;5047230;28;20371;-87
2021/01/27 07:58:47;;;;;;;2.60;1.55;;;4.10;81.00;;;;;;5070749;28;20025;-87
2021/01/27 08:01:38;;;;;;;1.90;1.70;;;4.10;80.90;;;;;;5071085;28;20036;-87
2021/01/27 08:04:26;;;;;;;2.85;1.75;;;4.10;81.00;;;;;;5052497;28;20025;-88
2021/01/27 08:06:54;;;;;;;2.97;1.92;;;4.10;81.20;;;;;;5054482;28;20057;-87
2021/01/27 08:09:39;;;;;;;2.72;1.92;;;4.10;81.20;;;;;;5053657;28;20083;-87
2021/01/27 08:12:26;;;;;;;2.30;1.88;;;4.10;81.20;;;;;;5053910;28;20029;-87
2021/01/27 08:15:13;;;;;;;2.78;1.90;;;4.20;81.30;;;;;;5053246;28;20452;-87
2021/01/27 08:17:45;;;;;;;2.88;1.98;;;4.20;81.50;;;;;;5052629;28;20111;-86
2021/01/27 08:20:24;;;;;;;4.63;2.50;;;4.20;81.60;;;;;;5033662;28;20021;-88
2021/01/27 08:22:56;;;;;;;4.85;2.75;;;4.20;81.70;;;;;;5049150;28;20028;-88
2021/01/27 08:26:04;;;;;;;4.20;2.83;;;4.20;82.00;;;;;;5053793;28;20025;-88
2021/01/27 08:28:36;;;;;;;3.17;2.60;;;4.20;82.40;;;;;;5053475;28;20049;-89
2021/01/27 08:31:12;;;;;;;3.53;2.47;;;4.20;82.40;;;;;;5069573;28;20116;-87
2021/01/27 08:33:47;;;;;;;3.05;2.58;;;4.20;82.40;;;;;;5070544;28;20083;-86
2021/01/27 08:36:41;;;;;;;3.80;2.40;;;4.20;82.30;;;;;;5069478;28;20086;-88
2021/01/27 08:39:21;;;;;;;2.72;2.20;;;4.20;82.60;;;;;;5053522;28;20056;-89
2021/01/27 08:42:17;;;;;;;3.33;2.45;;;4.20;82.50;;;;;;5077875;28;20070;-89
2021/01/27 08:44:43;;;;;;;3.25;2.33;;;4.30;82.70;;;;;;5078071;28;20028;-89
2021/01/27 08:47:22;;;;;;;2.35;2.00;;;4.20;82.60;;;;;;5075737;28;20086;-90
2021/01/27 08:50:01;;;;;;;2.95;2.08;;;4.20;82.60;;;;;;5082228;28;20051;-87
2021/01/27 08:52:26;;;;;;;3.65;2.65;;;4.30;82.70;;;;;;5060417;28;20035;-89
2021/01/27 08:54:53;;;;;;;4.30;2.70;;;4.30;83.30;;;;;;5077187;28;20024;-88
2021/01/27 08:57:33;;;;;;;2.20;1.75;;;4.30;83.30;;;;;;5060057;28;20032;-86
2021/01/27 09:00:11;;;;;;;2.83;2.20;;;4.30;83.80;;;;;;5059888;28;20106;-89
2021/01/27 09:03:02;;;;;;;2.45;2.10;;;4.30;83.10;;;;;;5076064;28;20055;-88
2021/01/27 09:05:28;;;;;;;3.63;2.00;;;4.30;83.10;;;;;;5076215;28;20027;-85
2021/01/27 09:07:58;;;;;;;2.78;2.00;;;4.30;83.10;;;;;;5059506;28;20048;-86
2021/01/27 09:10:31;;;;;;;2.83;2.05;;;4.40;83.10;;;;;;5076208;28;20039;-90
2021/01/27 09:12:58;;;;;;;2.50;1.95;;;4.40;83.00;;;;;;5077145;28;20041;-92
2021/01/27 09:15:27;;;;;;;2.92;2.20;;;4.40;82.90;;;;;;5077258;28;20074;-89
2021/01/27 09:17:55;;;;;;;3.13;2.25;;;4.40;82.90;;;;;;5075698;28;20021;-88
2021/01/27 09:20:27;;;;;;;4.35;2.45;;;4.40;83.00;;;;;;5059043;28;20034;-88
2021/01/27 09:22:59;;;;;;;4.70;2.10;;;4.50;83.00;;;;;;5076037;28;20019;-88
2021/01/27 09:25:48;;;;;;;2.50;2.10;;;4.50;82.90;;;;;;5077191;28;20115;-89
2021/01/27 09:28:33;;;;;;;;;;;4.50;82.90;;;;;;5078473;28;20472;-92
2021/01/27 09:30:59;;;;;;;3.10;2.30;;;4.50;83.00;;;;;;5076722;28;20463;-89
2021/01/27 09:33:35;;;;;;;2.28;2.08;;;4.50;83.00;;;;;;5044193;28;20058;-91
2021/01/27 09:36:12;;;;;;;3.28;2.20;;;4.50;82.90;;;;;;5076885;28;20031;-89
2021/01/27 09:38:38;;;;;;;3.10;2.40;;;4.50;83.10;;;;;;5076837;28;20166;-90
2021/01/27 09:41:14;;;;;;;3.08;2.40;;;4.50;83.20;;;;;;5062748;28;20499;-92
2021/01/27 09:43:45;;;;;;;2.90;2.30;;;4.60;83.20;;;;;;5079339;28;20032;-93
2021/01/27 09:46:25;;;;;;;2.53;2.25;;;4.50;83.10;;;;;;5078840;28;20047;-91
2021/01/27 09:48:53;;;;;;;3.38;2.60;;;4.60;83.30;;;;;;5076728;28;20070;-86
2021/01/27 09:51:20;;;;;;;4.18;2.58;;;4.60;83.40;;;;;;5076588;28;20074;-89
2021/01/27 09:53:46;;;;;;;4.25;2.42;;;4.60;83.30;;;;;;5059710;28;20367;-87
2021/01/27 09:56:19;;;;;;;3.58;2.15;;;4.60;83.30;;;;;;5076571;28;20024;-89
2021/01/27 09:58:45;;;;;;;3.63;2.60;;;4.60;83.30;;;;;;5043853;28;20030;-88
2021/01/27 10:01:19;;;;;;;3.58;2.35;;;4.60;83.50;;;;;;5059411;28;20141;-89
2021/01/27 10:04:12;;;;;;;2.65;2.17;;;4.60;84.10;;;;;;5096025;28;20542;-88
2021/01/27 10:06:54;;;;;;;2.78;2.22;;;4.70;83.40;;;;;;5096811;28;20047;-87
2021/01/27 10:09:29;;;;;;;2.90;2.10;;;4.70;83.50;;;;;;5081096;28;20024;-89
2021/01/27 10:12:12;;;;;;;2.90;2.47;;;4.70;83.40;;;;;;5086075;28;20024;-90
2021/01/27 10:14:41;;;;;;;2.83;2.22;;;4.70;83.40;;;;;;5079830;28;20024;-90
2021/01/27 10:17:10;;;;;;;3.45;2.22;;;4.70;83.40;;;;;;5079395;28;20077;-90
2021/01/27 10:19:41;;;;;;;2.85;2.20;;;4.70;83.30;;;;;;5060897;28;20067;-90
2021/01/27 10:22:08;;;;;;;3.50;2.47;;;4.80;83.40;;;;;;5079700;28;20031;-89
2021/01/27 10:24:52;;;;;;;3.92;2.50;;;4.80;83.40;;;;;;5062895;28;20366;-88
2021/01/27 10:27:20;;;;;;;3.80;2.63;;;4.80;83.50;;;;;;5079684;28;20112;-88
2021/01/27 10:29:46;;;;;;;4.15;3.08;;;4.80;83.40;;;;;;5079607;28;20016;-87
2021/01/27 10:32:33;;;;;;;3.63;2.63;;;4.80;83.40;;;;;;5062352;28;20373;-86
2021/01/27 10:35:01;;;;;;;3.97;3.00;;;4.90;83.60;;;;;;5079107;28;20024;-87
2021/01/27 10:37:43;;;;;;;4.97;3.25;;;4.90;83.80;;;;;;5062713;28;20428;-87
2021/01/27 10:40:31;;;;;;;4.53;3.00;;;4.90;83.90;;;;;;5079064;28;20075;-86
2021/01/27 10:43:15;;;;;;;4.45;3.17;;;4.90;83.90;;;;;;5079302;28;20157;-85
2021/01/27 10:45:42;;;;;;;4.43;3.58;;;4.90;84.10;;;;;;5078908;28;20630;-86
2021/01/27 10:48:11;;;;;;;4.05;3.30;;;4.90;84.20;;;;;;5079008;28;20024;-87
2021/01/27 10:50:47;;;;;;;3.88;3.33;;;4.90;84.20;;;;;;5078976;28;20115;-86
2021/01/27 10:53:14;;;;;;;3.78;3.33;;;5.00;84.30;;;;;;5078994;28;20039;-86
2021/01/27 10:55:44;;;;;;;5.00;3.65;;;5.00;84.50;;;;;;5081979;28;20114;-87
2021/01/27 10:58:13;;;;;;;4.78;3.40;;;5.00;84.60;;;;;;5092102;28;20032;-87
2021/01/27 11:00:39;;;;;;;;;;;5.00;84.60;;;;;;5079320;28;20135;-87
2021/01/27 11:03:06;;;;;;;5.70;3.40;;;5.00;84.50;;;;;;5096958;28;20345;-87
2021/01/27 11:05:33;;;;;;;4.78;3.42;;;5.10;84.60;;;;;;5078673;28;20028;-87
2021/01/27 11:07:59;;;;;;;4.38;3.30;;;5.10;84.60;;;;;;5079034;28;20020;-86
2021/01/27 11:10:25;;;;;;;5.13;3.60;;;5.10;84.50;;;;;;5078178;28;20028;-87
2021/01/27 11:12:53;;;;;;;3.90;3.25;;;5.10;84.50;;;;;;5096896;28;20031;-86
2021/01/27 11:15:19;;;;;;;5.53;4.00;;;5.20;84.60;;;;;;5078750;28;20016;-87
2021/01/27 11:17:47;;;;;;;6.95;3.92;;;5.20;85.20;;;;;;5086438;28;20479;-87
2021/01/27 11:20:13;;;;;;;6.55;4.88;;;5.20;84.40;;;;;;5061974;28;20027;-87
2021/01/27 11:22:39;;;;;;;6.13;4.47;;;5.20;84.50;;;;;;5078419;28;20031;-87
2021/01/27 11:25:05;;;;;;;6.40;4.93;;;5.20;84.80;;;;;;5065965;28;20024;-86
2021/01/27 11:27:30;;;;;;;5.57;4.38;;;5.20;85.00;;;;;;5081500;28;20130;-87
2021/01/27 11:29:56;;;;;;;5.03;3.97;;;5.30;85.00;;;;;;5079846;28;20162;-87
2021/01/27 11:32:22;;;;;;;7.30;4.82;;;5.30;84.90;;;;;;5044682;28;20465;-87
2021/01/27 11:34:47;;;;;;;5.45;4.38;;;5.30;84.80;;;;;;5041560;28;20561;-87
2021/01/27 11:37:13;;;;;;;6.20;5.20;;;5.30;84.80;;;;;;5060519;28;20024;-86
2021/01/27 11:39:39;;;;;;;8.32;6.85;;;5.40;85.40;;;;;;5106434;22;20087;-87
2021/01/27 11:42:05;;;;;;;6.95;5.03;;;5.40;84.90;;;;;;5095073;28;20074;-87
2021/01/27 11:44:30;;;;;;;6.85;5.18;;;5.40;85.00;;;;;;5067377;28;20027;-87
2021/01/27 11:46:56;;;;;;;8.00;5.65;;;5.40;85.00;;;;;;5076114;28;20056;-87
2021/01/27 11:49:23;;;;;;;7.43;5.47;;;5.40;84.90;;;;;;5058978;28;20028;-87
2021/01/27 11:51:49;;;;;;;6.82;4.97;;;5.50;85.00;;;;;;5075871;28;20020;-87
2021/01/27 11:54:14;;;;;;;6.50;5.10;;;5.50;85.40;;;;;;5092480;28;20081;-87
2021/01/27 11:56:41;;;;;;;6.72;4.93;;;5.50;84.80;;;;;;5069966;28;20039;-87
2021/01/27 11:59:08;;;;;;;8.18;5.90;;;5.50;84.80;;;;;;5095454;28;20388;-87
2021/01/27 12:01:35;;;;;;;6.95;5.30;;;5.60;84.90;;;;;;5078342;28;20053;-87
2021/01/27 12:04:04;;;;;;;7.38;5.75;;;5.60;85.00;;;;;;5079575;28;20078;-87
2021/01/27 12:06:30;;;;;;;6.90;5.57;;;5.60;85.00;;;;;;5079268;28;20376;-87
2021/01/27 12:08:56;;;;;;;7.57;5.82;;;5.60;85.00;;;;;;5062489;28;20028;-87
2021/01/27 12:11:22;;;;;;;8.48;6.38;;;5.60;85.00;;;;;;5096034;28;20491;-87
2021/01/27 12:13:48;;;;;;;7.85;5.65;;;5.60;85.00;;;;;;5096184;28;20065;-87
2021/01/27 12:16:15;;;;;;;7.68;5.93;;;5.70;85.10;;;;;;5079039;28;20039;-87
2021/01/27 12:18:42;;;;;;;6.65;4.57;;;5.70;85.00;;;;;;5095754;28;20020;-87
2021/01/27 12:21:08;;;;;;;6.93;6.13;;;5.70;84.90;;;;;;5062434;28;20070;-87
2021/01/27 12:23:34;;;;;;;7.05;5.78;;;5.70;84.80;;;;;;5077409;28;20114;-87
2021/01/27 12:26:00;;;;;;;6.55;5.65;;;5.80;84.90;;;;;;5095443;28;20114;-87
2021/01/27 12:28:25;;;;;;;5.47;4.68;;;5.80;84.80;;;;;;5077286;28;20036;-87
2021/01/27 12:30:51;;;;;;;7.28;5.95;;;5.80;84.70;;;;;;5078582;28;20512;-87
2021/01/27 12:33:17;;;;;;;6.75;5.43;;;5.80;84.60;;;;;;5078814;28;20063;-87
2021/01/27 12:35:43;;;;;;;7.13;5.88;;;5.90;84.50;;;;;;5095685;28;20023;-88
2021/01/27 12:38:09;;;;;;;6.55;5.18;;;5.90;84.60;;;;;;5095496;28;20114;-88
2021/01/27 12:40:34;;;;;;;6.93;5.55;;;5.90;84.50;;;;;;5061342;28;20382;-87
2021/01/27 12:43:00;;;;;;;6.00;5.30;;;5.90;84.40;;;;;;5061868;28;20067;-87
2021/01/27 12:45:28;;;;;;;7.50;5.43;;;5.90;84.40;;;;;;5061513;28;20073;-87
2021/01/27 12:47:54;;;;;;;7.90;6.30;;;6.00;84.60;;;;;;5095439;28;20070;-87
2021/01/27 12:50:21;;;;;;;6.85;5.57;;;6.00;84.60;;;;;;5078592;28;20050;-87
2021/01/27 12:52:47;;;;;;;7.57;6.10;;;6.00;85.10;;;;;;5078428;28;20385;-88
2021/01/27 12:55:15;;;;;;;7.32;6.40;;;6.00;84.50;;;;;;5078029;28;20028;-87
2021/01/27 12:57:42;;;;;;;8.20;6.43;;;6.00;85.20;;;;;;5094736;28;20380;-88
2021/01/27 13:00:12;;;;;;;7.47;6.15;;;6.00;84.60;;;;;;5094928;28;20356;-88
2021/01/27 13:02:37;;;;;;;7.75;6.10;;;6.10;84.60;;;;;;5094939;28;20024;-87
2021/01/27 13:05:10;;;;;;;7.88;6.40;;;6.10;84.60;;;;;;5095036;28;20024;-88
2021/01/27 13:07:39;;;;;;;9.68;7.68;;;6.10;84.70;;;;;;5078946;28;20028;-88
2021/01/27 13:10:08;;;;;;;8.05;5.95;;;6.10;84.80;;;;;;5077877;28;20032;-87
2021/01/27 13:12:36;;;;;;;8.15;6.28;;;6.10;84.70;;;;;;5077822;28;20032;-87
2021/01/27 13:15:07;;;;;;;9.40;7.47;;;6.10;84.60;;;;;;5095262;28;20068;-87
2021/01/27 13:17:33;;;;;;;8.95;7.35;;;6.10;84.70;;;;;;5094722;28;20055;-87
2021/01/27 13:19:58;;;;;;;10.27;8.00;;;6.10;84.90;;;;;;5078114;28;20066;-87
2021/01/27 13:22:24;;;;;;;9.38;7.80;;;6.20;84.90;;;;;;5094172;28;20020;-87
2021/01/27 13:24:50;;;;;;;9.77;7.63;;;6.20;85.00;;;;;;5061484;28;20031;-88
2021/01/27 13:27:15;;;;;;;8.00;6.85;;;6.20;84.90;;;;;;5077857;28;20035;-88
2021/01/27 13:29:44;;;;;;;8.35;6.95;;;6.20;85.00;;;;;;5077649;28;20085;-88
2021/01/27 13:32:10;;;;;;;9.80;7.45;;;6.20;84.90;;;;;;5077992;28;20027;-87